createdAt,value
2019-05-12T00:00:48.760Z,1019.41
2019-05-12T00:01:48.763Z,1019.40
2019-05-12T00:02:48.803Z,1019.46
2019-05-12T00:03:48.704Z,1019.48
2019-05-12T00:04:48.934Z,1019.49
2019-05-12T00:05:48.661Z,1019.48
2019-05-12T00:06:48.642Z,1019.50
2019-05-12T00:07:49.039Z,1019.52
2019-05-12T00:08:48.847Z,1019.53
2019-05-12T00:09:48.579Z,1019.55
2019-05-12T00:10:48.569Z,1019.59
2019-05-12T00:11:48.594Z,1019.55
2019-05-12T00:12:48.690Z,1019.55
2019-05-12T00:13:48.506Z,1019.56
2019-05-12T00:14:48.638Z,1019.59
2019-05-12T00:15:48.462Z,1019.61
2019-05-12T00:16:49.074Z,1019.61
2019-05-12T00:17:48.671Z,1019.60
2019-05-12T00:18:48.454Z,1019.64
2019-05-12T00:19:48.386Z,1019.62
2019-05-12T00:20:48.366Z,1019.65
2019-05-12T00:21:48.471Z,1019.66
2019-05-12T00:22:48.798Z,1019.68
2019-05-12T00:23:48.300Z,1019.69
2019-05-12T00:24:48.284Z,1019.68
2019-05-12T00:25:48.263Z,1019.69
2019-05-12T00:26:48.241Z,1019.68
2019-05-12T00:27:48.819Z,1019.72
2019-05-12T00:28:48.296Z,1019.71
2019-05-12T00:29:48.625Z,1019.72
2019-05-12T00:30:48.743Z,1019.74
2019-05-12T00:31:48.142Z,1019.75
2019-05-12T00:32:48.130Z,1019.78
2019-05-12T00:33:48.122Z,1019.77
2019-05-12T00:34:48.181Z,1019.76
2019-05-12T00:35:48.401Z,1019.80
2019-05-12T00:36:48.528Z,1019.83
2019-05-12T00:37:48.620Z,1019.86
2019-05-12T00:38:48.552Z,1019.85
2019-05-12T00:39:47.990Z,1019.87
2019-05-12T00:40:48.093Z,1019.88
2019-05-12T00:41:48.240Z,1019.91
2019-05-12T00:42:48.525Z,1019.90
2019-05-12T00:43:48.759Z,1019.95
2019-05-12T00:44:48.006Z,1019.97
2019-05-12T00:45:48.296Z,1020.02
2019-05-12T00:46:48.748Z,1020.02
2019-05-12T00:47:48.164Z,1020.05
2019-05-12T00:48:48.300Z,1020.07
2019-05-12T00:49:48.574Z,1020.10
2019-05-12T00:50:48.535Z,1020.11
2019-05-12T00:51:48.506Z,1020.18
2019-05-12T00:52:48.926Z,1020.19
2019-05-12T00:53:47.962Z,1020.23
2019-05-12T00:54:48.334Z,1020.24
2019-05-12T00:55:47.759Z,1020.25
2019-05-12T00:56:48.250Z,1020.26
2019-05-12T00:57:48.493Z,1020.26
2019-05-12T00:58:48.761Z,1020.29
2019-05-12T00:59:47.888Z,1020.33
2019-05-12T01:00:48.279Z,1020.29
2019-05-12T01:01:48.159Z,1020.32
2019-05-12T01:02:48.608Z,1020.32
2019-05-12T01:03:48.362Z,1020.31
2019-05-12T01:04:48.725Z,1020.33
2019-05-12T01:05:48.488Z,1020.31
2019-05-12T01:06:48.569Z,1020.29
2019-05-12T01:07:48.213Z,1020.32
2019-05-12T01:08:48.389Z,1020.31
2019-05-12T01:09:49.126Z,1020.34
2019-05-12T01:10:47.978Z,1020.28
2019-05-12T01:11:48.103Z,1020.33
2019-05-12T01:12:48.633Z,1020.29
2019-05-12T01:13:48.583Z,1020.30
2019-05-12T01:14:47.775Z,1020.30
2019-05-12T01:15:48.144Z,1020.34
2019-05-12T01:16:48.652Z,1020.35
2019-05-12T01:17:47.801Z,1020.39
2019-05-12T01:18:47.993Z,1020.39
2019-05-12T01:19:48.623Z,1020.38
2019-05-12T01:20:47.973Z,1020.41
2019-05-12T01:21:48.169Z,1020.41
2019-05-12T01:22:50.354Z,1020.45
2019-05-12T01:23:56.459Z,1020.41
2019-05-12T01:24:48.316Z,1020.44
2019-05-12T01:25:47.834Z,1020.42
2019-05-12T01:26:47.616Z,1020.44
2019-05-12T01:27:48.351Z,1020.40
2019-05-12T01:28:48.792Z,1020.44
2019-05-12T01:29:48.062Z,1020.43
2019-05-12T01:30:47.943Z,1020.45
2019-05-12T01:31:48.618Z,1020.46
2019-05-12T01:32:48.371Z,1020.50
2019-05-12T01:33:48.579Z,1020.48
2019-05-12T01:34:48.640Z,1020.51
2019-05-12T01:35:48.266Z,1020.56
2019-05-12T01:36:48.310Z,1020.51
2019-05-12T01:37:48.377Z,1020.57
2019-05-12T01:38:48.267Z,1020.58
2019-05-12T01:39:48.981Z,1020.60
2019-05-12T01:40:47.906Z,1020.64
2019-05-12T01:41:48.117Z,1020.65
2019-05-12T01:42:48.363Z,1020.65
2019-05-12T01:43:48.742Z,1020.65
2019-05-12T01:44:48.170Z,1020.62
2019-05-12T01:45:48.326Z,1020.64
2019-05-12T01:46:48.351Z,1020.68
2019-05-12T01:47:48.605Z,1020.72
2019-05-12T01:48:48.412Z,1020.77
2019-05-12T01:49:48.672Z,1020.78
2019-05-12T01:50:47.545Z,1020.80
2019-05-12T01:51:47.629Z,1020.81
2019-05-12T01:52:47.871Z,1020.83
2019-05-12T01:53:48.240Z,1020.82
2019-05-12T01:54:48.343Z,1020.83
2019-05-12T01:55:48.448Z,1020.82
2019-05-12T01:56:48.350Z,1020.87
2019-05-12T01:57:48.484Z,1020.85
2019-05-12T01:58:48.424Z,1020.88
2019-05-12T01:59:48.343Z,1020.92
2019-05-12T02:00:48.284Z,1020.98
2019-05-12T02:01:48.637Z,1021.00
2019-05-12T02:02:48.100Z,1021.00
2019-05-12T02:03:48.066Z,1021.05
2019-05-12T02:04:48.338Z,1021.06
2019-05-12T02:05:48.396Z,1021.08
2019-05-12T02:06:48.415Z,1021.12
2019-05-12T02:07:47.975Z,1021.13
2019-05-12T02:08:47.751Z,1021.13
2019-05-12T02:09:48.068Z,1021.17
2019-05-12T02:10:48.098Z,1021.21
2019-05-12T02:11:48.212Z,1021.20
2019-05-12T02:12:48.418Z,1021.21
2019-05-12T02:13:48.095Z,1021.22
2019-05-12T02:14:48.526Z,1021.21
2019-05-12T02:15:46.048Z,1021.20
2019-05-12T02:16:47.744Z,1021.20
2019-05-12T02:17:48.151Z,1021.24
2019-05-12T02:18:45.987Z,1021.26
2019-05-12T02:19:48.011Z,1021.27
2019-05-12T02:20:48.167Z,1021.26
2019-05-12T02:21:45.927Z,1021.26
2019-05-12T02:22:47.766Z,1021.29
2019-05-12T02:23:47.789Z,1021.27
2019-05-12T02:24:47.892Z,1021.32
2019-05-12T02:25:48.219Z,1021.34
2019-05-12T02:26:45.833Z,1021.35
2019-05-12T02:27:47.632Z,1021.32
2019-05-12T02:28:47.901Z,1021.34
2019-05-12T02:29:47.981Z,1021.35
2019-05-12T02:30:45.744Z,1021.39
2019-05-12T02:31:45.724Z,1021.35
2019-05-12T02:32:53.140Z,1021.36
2019-05-12T02:33:45.687Z,1021.36
2019-05-12T02:34:45.855Z,1021.35
2019-05-12T02:35:45.647Z,1021.35
2019-05-12T02:36:45.624Z,1021.35
2019-05-12T02:37:45.608Z,1021.36
2019-05-12T02:38:45.587Z,1021.36
2019-05-12T02:39:45.603Z,1021.37
2019-05-12T02:40:45.542Z,1021.39
2019-05-12T02:41:45.520Z,1021.42
2019-05-12T02:42:46.607Z,1021.45
2019-05-12T02:43:45.967Z,1021.48
2019-05-12T02:44:45.463Z,1021.51
2019-05-12T02:45:45.439Z,1021.52
2019-05-12T02:46:45.423Z,1021.54
2019-05-12T02:47:45.919Z,1021.57
2019-05-12T02:48:45.378Z,1021.62
2019-05-12T02:49:45.368Z,1021.64
2019-05-12T02:50:45.411Z,1021.67
2019-05-12T02:51:45.698Z,1021.71
2019-05-12T02:52:45.294Z,1021.71
2019-05-12T02:53:46.958Z,1021.73
2019-05-12T02:54:55.245Z,1021.76
2019-05-12T02:55:45.250Z,1021.77
2019-05-12T02:56:45.213Z,1021.77
2019-05-12T02:57:45.413Z,1021.78
2019-05-12T02:58:45.403Z,1021.79
2019-05-12T02:59:45.155Z,1021.79
2019-05-12T03:00:45.720Z,1021.76
2019-05-12T03:01:45.314Z,1021.80
2019-05-12T03:02:45.089Z,1021.79
2019-05-12T03:03:45.073Z,1021.81
2019-05-12T03:04:45.053Z,1021.80
2019-05-12T03:05:45.030Z,1021.84
2019-05-12T03:06:45.190Z,1021.82
2019-05-12T03:07:44.993Z,1021.86
2019-05-12T03:08:45.023Z,1021.91
2019-05-12T03:09:44.950Z,1021.90
2019-05-12T03:10:44.998Z,1021.93
2019-05-12T03:11:44.943Z,1021.92
2019-05-12T03:12:45.204Z,1021.95
2019-05-12T03:13:45.085Z,1021.92
2019-05-12T03:14:44.908Z,1021.97
2019-05-12T03:15:44.853Z,1022.00
2019-05-12T03:16:45.490Z,1022.07
2019-05-12T03:17:44.788Z,1022.02
2019-05-12T03:18:45.165Z,1022.03
2019-05-12T03:19:44.972Z,1022.01
2019-05-12T03:20:45.547Z,1022.03
2019-05-12T03:21:44.702Z,1022.01
2019-05-12T03:22:45.042Z,1022.10
2019-05-12T03:23:45.026Z,1022.07
2019-05-12T03:24:44.987Z,1022.10
2019-05-12T03:25:45.585Z,1022.08
2019-05-12T03:26:45.136Z,1022.10
2019-05-12T03:27:44.691Z,1022.10
2019-05-12T03:28:44.849Z,1022.15
2019-05-12T03:29:44.993Z,1022.16
2019-05-12T03:30:48.474Z,1022.15
2019-05-12T03:31:48.719Z,1022.15
2019-05-12T03:32:47.187Z,1022.15
2019-05-12T03:33:52.262Z,1022.15
2019-05-12T03:34:47.318Z,1022.20
2019-05-12T03:35:52.483Z,1022.19
2019-05-12T03:36:50.892Z,1022.21
2019-05-12T03:37:45.244Z,1022.24
2019-05-12T03:38:44.866Z,1022.29
2019-05-12T03:39:44.824Z,1022.27
2019-05-12T03:40:45.292Z,1022.27
2019-05-12T03:41:44.710Z,1022.28
2019-05-12T03:42:44.615Z,1022.25
2019-05-12T03:43:45.051Z,1022.27
2019-05-12T03:44:44.616Z,1022.28
2019-05-12T03:45:45.343Z,1022.31
2019-05-12T03:46:45.669Z,1022.30
2019-05-12T03:47:45.457Z,1022.33
2019-05-12T03:48:45.383Z,1022.40
2019-05-12T03:49:45.423Z,1022.38
2019-05-12T03:50:46.036Z,1022.39
2019-05-12T03:51:45.668Z,1022.48
2019-05-12T03:52:44.943Z,1022.46
2019-05-12T03:53:45.395Z,1022.46
2019-05-12T03:54:45.188Z,1022.48
2019-05-12T03:55:46.833Z,1022.50
2019-05-12T03:56:45.037Z,1022.48
2019-05-12T03:57:45.050Z,1022.45
2019-05-12T03:58:45.199Z,1022.47
2019-05-12T03:59:44.962Z,1022.52
2019-05-12T04:00:44.717Z,1022.48
2019-05-12T04:01:44.997Z,1022.54
2019-05-12T04:02:45.371Z,1022.50
2019-05-12T04:03:45.160Z,1022.52
2019-05-12T04:04:45.280Z,1022.57
2019-05-12T04:05:45.292Z,1022.55
2019-05-12T04:06:45.257Z,1022.59
2019-05-12T04:07:45.032Z,1022.62
2019-05-12T04:08:45.661Z,1022.65
2019-05-12T04:09:45.109Z,1022.68
2019-05-12T04:10:45.344Z,1022.68
2019-05-12T04:11:44.505Z,1022.69
2019-05-12T04:12:44.797Z,1022.70
2019-05-12T04:13:45.122Z,1022.74
2019-05-12T04:14:44.906Z,1022.75
2019-05-12T04:15:45.538Z,1022.76
2019-05-12T04:16:45.189Z,1022.76
2019-05-12T04:17:45.265Z,1022.80
2019-05-12T04:18:45.053Z,1022.79
2019-05-12T04:19:44.718Z,1022.82
2019-05-12T04:20:45.230Z,1022.84
2019-05-12T04:21:44.617Z,1022.82
2019-05-12T04:22:44.643Z,1022.77
2019-05-12T04:23:44.377Z,1022.79
2019-05-12T04:24:44.566Z,1022.80
2019-05-12T04:25:52.953Z,1022.84
2019-05-12T04:26:44.858Z,1022.83
2019-05-12T04:27:45.103Z,1022.88
2019-05-12T04:28:45.533Z,1022.91
2019-05-12T04:29:44.183Z,1022.90
2019-05-12T04:30:44.558Z,1022.93
2019-05-12T04:31:44.236Z,1022.96
2019-05-12T04:32:45.186Z,1022.96
2019-05-12T04:33:45.140Z,1022.99
2019-05-12T04:34:44.698Z,1022.99
2019-05-12T04:35:45.213Z,1023.06
2019-05-12T04:36:44.956Z,1023.00
2019-05-12T04:37:44.996Z,1023.02
2019-05-12T04:38:44.996Z,1023.08
2019-05-12T04:39:44.727Z,1023.07
2019-05-12T04:40:45.072Z,1023.10
2019-05-12T04:41:44.720Z,1023.12
2019-05-12T04:42:45.249Z,1023.16
2019-05-12T04:43:44.728Z,1023.16
2019-05-12T04:44:44.867Z,1023.13
2019-05-12T04:45:45.046Z,1023.15
2019-05-12T04:46:45.045Z,1023.15
2019-05-12T04:47:44.934Z,1023.15
2019-05-12T04:48:45.241Z,1023.18
2019-05-12T04:49:45.231Z,1023.19
2019-05-12T04:50:45.257Z,1023.18
2019-05-12T04:51:45.174Z,1023.25
2019-05-12T04:52:44.550Z,1023.26
2019-05-12T04:53:44.877Z,1023.27
2019-05-12T04:54:44.441Z,1023.31
2019-05-12T04:55:44.534Z,1023.37
2019-05-12T04:56:44.627Z,1023.36
2019-05-12T04:57:45.026Z,1023.41
2019-05-12T04:58:45.012Z,1023.43
2019-05-12T04:59:45.103Z,1023.43
2019-05-12T05:00:44.844Z,1023.48
2019-05-12T05:01:45.319Z,1023.49
2019-05-12T05:02:45.555Z,1023.50
2019-05-12T05:03:44.302Z,1023.50
2019-05-12T05:04:44.118Z,1023.53
2019-05-12T05:05:44.476Z,1023.52
2019-05-12T05:06:44.850Z,1023.53
2019-05-12T05:07:44.823Z,1023.56
2019-05-12T05:08:44.213Z,1023.59
2019-05-12T05:09:44.261Z,1023.60
2019-05-12T05:10:44.354Z,1023.66
2019-05-12T05:11:44.332Z,1023.68
2019-05-12T05:12:45.024Z,1023.69
2019-05-12T05:13:44.428Z,1023.77
2019-05-12T05:14:44.612Z,1023.77
2019-05-12T05:15:44.571Z,1023.82
2019-05-12T05:16:45.020Z,1023.88
2019-05-12T05:17:44.123Z,1023.87
2019-05-12T05:18:43.946Z,1023.90
2019-05-12T05:19:44.114Z,1023.87
2019-05-12T05:20:43.818Z,1023.88
2019-05-12T05:21:43.755Z,1023.94
2019-05-12T05:22:43.994Z,1023.94
2019-05-12T05:23:44.331Z,1023.96
2019-05-12T05:24:44.303Z,1023.99
2019-05-12T05:25:43.445Z,1024.02
2019-05-12T05:26:43.601Z,1024.02
2019-05-12T05:27:44.315Z,1024.06
2019-05-12T05:28:43.566Z,1024.07
2019-05-12T05:29:43.787Z,1024.07
2019-05-12T05:30:44.084Z,1024.12
2019-05-12T05:31:43.991Z,1024.15
2019-05-12T05:32:44.276Z,1024.13
2019-05-12T05:33:43.451Z,1024.14
2019-05-12T05:34:46.268Z,1024.17
2019-05-12T05:35:43.539Z,1024.18
2019-05-12T05:36:43.339Z,1024.21
2019-05-12T05:37:44.103Z,1024.17
2019-05-12T05:38:43.692Z,1024.19
2019-05-12T05:39:48.010Z,1024.20
2019-05-12T05:40:43.523Z,1024.22
2019-05-12T05:41:48.804Z,1024.27
2019-05-12T05:42:43.879Z,1024.29
2019-05-12T05:43:43.793Z,1024.28
2019-05-12T05:44:43.480Z,1024.29
2019-05-12T05:45:43.697Z,1024.33
2019-05-12T05:46:48.236Z,1024.32
2019-05-12T05:47:44.091Z,1024.30
2019-05-12T05:48:43.996Z,1024.30
2019-05-12T05:49:43.435Z,1024.29
2019-05-12T05:50:43.797Z,1024.35
2019-05-12T05:51:46.661Z,1024.37
2019-05-12T05:52:43.779Z,1024.35
2019-05-12T05:53:44.009Z,1024.38
2019-05-12T05:54:43.843Z,1024.35
2019-05-12T05:55:41.627Z,1024.37
2019-05-12T05:56:48.452Z,1024.35
2019-05-12T05:57:44.182Z,1024.35
2019-05-12T05:58:46.993Z,1024.37
2019-05-12T05:59:41.556Z,1024.39
2019-05-12T06:00:43.505Z,1024.38
2019-05-12T06:01:47.167Z,1024.40
2019-05-12T06:02:43.910Z,1024.43
2019-05-12T06:03:43.848Z,1024.42
2019-05-12T06:04:45.420Z,1024.48
2019-05-12T06:05:43.329Z,1024.47
2019-05-12T06:06:42.476Z,1024.46
2019-05-12T06:07:41.403Z,1024.50
2019-05-12T06:08:41.381Z,1024.46
2019-05-12T06:09:43.257Z,1024.47
2019-05-12T06:10:43.383Z,1024.48
2019-05-12T06:11:43.624Z,1024.51
2019-05-12T06:12:48.633Z,1024.54
2019-05-12T06:13:41.293Z,1024.53
2019-05-12T06:14:51.649Z,1024.54
2019-05-12T06:15:43.395Z,1024.56
2019-05-12T06:16:43.287Z,1024.51
2019-05-12T06:17:43.697Z,1024.57
2019-05-12T06:18:43.750Z,1024.57
2019-05-12T06:19:43.665Z,1024.59
2019-05-12T06:20:43.558Z,1024.61
2019-05-12T06:21:41.142Z,1024.65
2019-05-12T06:22:43.610Z,1024.70
2019-05-12T06:23:43.037Z,1024.76
2019-05-12T06:24:41.081Z,1024.78
2019-05-12T06:25:47.475Z,1024.79
2019-05-12T06:26:54.574Z,1024.80
2019-05-12T06:27:41.028Z,1024.77
2019-05-12T06:28:41.827Z,1024.74
2019-05-12T06:29:40.990Z,1024.74
2019-05-12T06:30:47.091Z,1024.74
2019-05-12T06:31:40.954Z,1024.73
2019-05-12T06:32:45.950Z,1024.77
2019-05-12T06:33:40.919Z,1024.78
2019-05-12T06:34:40.895Z,1024.77
2019-05-12T06:35:44.633Z,1024.78
2019-05-12T06:36:40.858Z,1024.82
2019-05-12T06:37:40.842Z,1024.85
2019-05-12T06:38:40.825Z,1024.90
2019-05-12T06:39:40.812Z,1024.90
2019-05-12T06:40:42.475Z,1024.93
2019-05-12T06:41:40.777Z,1024.98
2019-05-12T06:42:40.750Z,1024.99
2019-05-12T06:43:43.250Z,1024.99
2019-05-12T06:44:40.726Z,1025.03
2019-05-12T06:45:44.911Z,1025.05
2019-05-12T06:46:40.685Z,1025.09
2019-05-12T06:47:47.483Z,1025.03
2019-05-12T06:48:43.260Z,1025.08
2019-05-12T06:49:40.621Z,1025.09
2019-05-12T06:50:40.606Z,1025.12
2019-05-12T06:51:40.590Z,1025.11
2019-05-12T06:52:46.817Z,1025.11
2019-05-12T06:53:40.551Z,1025.20
2019-05-12T06:54:44.637Z,1025.21
2019-05-12T06:55:40.521Z,1025.25
2019-05-12T06:56:40.497Z,1025.25
2019-05-12T06:57:45.864Z,1025.25
2019-05-12T06:58:40.459Z,1025.29
2019-05-12T06:59:41.878Z,1025.33
2019-05-12T07:00:40.426Z,1025.36
2019-05-12T07:01:40.408Z,1025.36
2019-05-12T07:02:50.075Z,1025.36
2019-05-12T07:03:40.379Z,1025.32
2019-05-12T07:04:41.281Z,1025.39
2019-05-12T07:05:42.636Z,1025.35
2019-05-12T07:06:40.325Z,1025.36
2019-05-12T07:07:42.799Z,1025.39
2019-05-12T07:08:40.288Z,1025.38
2019-05-12T07:09:53.468Z,1025.37
2019-05-12T07:10:44.309Z,1025.34
2019-05-12T07:11:44.717Z,1025.35
2019-05-12T07:12:58.207Z,1025.35
2019-05-12T07:13:40.204Z,1025.37
2019-05-12T07:14:40.188Z,1025.35
2019-05-12T07:15:40.719Z,1025.40
2019-05-12T07:16:40.154Z,1025.47
2019-05-12T07:17:43.594Z,1025.40
2019-05-12T07:18:40.129Z,1025.44
2019-05-12T07:19:40.115Z,1025.49
2019-05-12T07:20:40.090Z,1025.53
2019-05-12T07:21:40.071Z,1025.54
2019-05-12T07:22:44.170Z,1025.55
2019-05-12T07:23:40.043Z,1025.56
2019-05-12T07:24:40.889Z,1025.55
2019-05-12T07:25:40.007Z,1025.56
2019-05-12T07:26:39.991Z,1025.61
2019-05-12T07:28:40.594Z,1025.55
2019-05-12T07:29:39.943Z,1025.52
2019-05-12T07:30:39.931Z,1025.49
2019-05-12T07:31:39.911Z,1025.48
2019-05-12T07:32:39.895Z,1025.47
2019-05-12T07:33:41.894Z,1025.49
2019-05-12T07:34:39.866Z,1025.49
2019-05-12T07:35:39.849Z,1025.48
2019-05-12T07:36:39.834Z,1025.49
2019-05-12T07:37:39.823Z,1025.52
2019-05-12T07:38:39.805Z,1025.43
2019-05-12T07:39:45.400Z,1025.45
2019-05-12T07:40:39.774Z,1025.51
2019-05-12T07:41:42.260Z,1025.49
2019-05-12T07:42:39.790Z,1025.50
2019-05-12T07:43:39.724Z,1025.47
2019-05-12T07:44:41.242Z,1025.59
2019-05-12T07:45:39.696Z,1025.53
2019-05-12T07:46:44.958Z,1025.50
2019-05-12T07:47:39.661Z,1025.49
2019-05-12T07:48:40.311Z,1025.54
2019-05-12T07:49:39.637Z,1025.53
2019-05-12T07:50:39.618Z,1025.54
2019-05-12T07:51:40.796Z,1025.50
2019-05-12T07:52:39.588Z,1025.48
2019-05-12T07:53:39.568Z,1025.44
2019-05-12T07:54:39.709Z,1025.43
2019-05-12T07:55:44.460Z,1025.43
2019-05-12T07:56:40.933Z,1025.49
2019-05-12T07:57:52.049Z,1025.49
2019-05-12T07:58:40.949Z,1025.51
2019-05-12T07:59:41.162Z,1025.50
2019-05-12T08:00:39.468Z,1025.54
2019-05-12T08:01:46.577Z,1025.56
2019-05-12T08:02:39.432Z,1025.57
2019-05-12T08:03:39.415Z,1025.57
2019-05-12T08:04:41.060Z,1025.59
2019-05-12T08:05:39.390Z,1025.59
2019-05-12T08:06:41.550Z,1025.92
2019-05-12T08:07:39.359Z,1025.64
2019-05-12T08:08:41.778Z,1025.69
2019-05-12T08:09:39.323Z,1025.65
2019-05-12T08:10:39.317Z,1025.67
2019-05-12T08:11:39.298Z,1025.70
2019-05-12T08:12:39.282Z,1025.72
2019-05-12T08:13:40.955Z,1025.75
2019-05-12T08:14:39.247Z,1025.76
2019-05-12T08:15:44.358Z,1025.75
2019-05-12T08:16:39.367Z,1025.74
2019-05-12T08:17:39.216Z,1026.14
2019-05-12T08:18:41.074Z,1025.72
2019-05-12T08:19:39.168Z,1026.67
2019-05-12T08:20:39.150Z,1026.57
2019-05-12T08:21:43.639Z,1026.76
2019-05-12T08:22:40.846Z,1026.79
2019-05-12T08:23:39.115Z,1026.85
2019-05-12T08:24:43.248Z,1026.83
2019-05-12T08:25:39.091Z,1026.86
2019-05-12T08:26:39.074Z,1026.89
2019-05-12T08:27:44.038Z,1026.86
2019-05-12T08:28:40.424Z,1026.90
2019-05-12T08:29:39.045Z,1026.90
2019-05-12T08:30:45.375Z,1026.70
2019-05-12T08:31:40.751Z,1026.09
2019-05-12T08:32:39.035Z,1026.05
2019-05-12T08:33:39.007Z,1026.01
2019-05-12T08:34:39.906Z,1026.04
2019-05-12T08:35:39.001Z,1027.12
2019-05-12T08:36:38.994Z,1025.94
2019-05-12T08:37:38.975Z,1025.98
2019-05-12T08:38:38.967Z,1025.95
2019-05-12T08:39:39.114Z,1025.91
2019-05-12T08:40:45.277Z,1025.96
2019-05-12T08:41:38.951Z,1025.98
2019-05-12T08:42:38.926Z,1025.95
2019-05-12T08:43:40.633Z,1025.93
2019-05-12T08:44:40.755Z,1025.92
2019-05-12T08:45:38.893Z,1026.86
2019-05-12T08:46:43.274Z,1026.87
2019-05-12T08:47:39.087Z,1027.07
2019-05-12T08:48:38.865Z,1027.07
2019-05-12T08:49:50.080Z,1027.10
2019-05-12T08:50:38.838Z,1027.09
2019-05-12T08:51:38.831Z,1027.08
2019-05-12T08:52:41.279Z,1027.13
2019-05-12T08:53:38.815Z,1027.12
2019-05-12T08:54:39.560Z,1027.07
2019-05-12T08:55:38.802Z,1027.02
2019-05-12T08:56:38.798Z,1026.99
2019-05-12T08:57:40.645Z,1027.01
2019-05-12T08:58:47.249Z,1027.05
2019-05-12T08:59:38.794Z,1027.11
2019-05-12T09:00:45.425Z,1026.28
2019-05-12T09:01:38.777Z,1026.19
2019-05-12T09:02:39.969Z,1026.18
2019-05-12T09:03:38.752Z,1026.19
2019-05-12T09:04:45.369Z,1026.17
2019-05-12T09:05:38.909Z,1026.24
2019-05-12T09:06:38.734Z,1026.25
2019-05-12T09:07:39.997Z,1026.24
2019-05-12T09:08:45.118Z,1026.19
2019-05-12T09:09:38.708Z,1026.20
2019-05-12T09:10:38.706Z,1026.24
2019-05-12T09:11:38.731Z,1026.35
2019-05-12T09:12:38.676Z,1026.28
2019-05-12T09:13:38.670Z,1026.26
2019-05-12T09:14:41.408Z,1026.24
2019-05-12T09:15:38.657Z,1026.48
2019-05-12T09:16:38.639Z,1026.24
2019-05-12T09:17:49.045Z,1026.27
2019-05-12T09:18:39.352Z,1026.25
2019-05-12T09:19:38.604Z,1026.45
2019-05-12T09:20:47.885Z,1026.25
2019-05-12T09:21:38.580Z,1026.22
2019-05-12T09:22:38.572Z,1026.22
2019-05-12T09:23:40.982Z,1026.27
2019-05-12T09:24:38.544Z,1026.28
2019-05-12T09:25:39.473Z,1026.43
2019-05-12T09:26:38.520Z,1026.79
2019-05-12T09:27:39.438Z,1026.82
2019-05-12T09:28:47.382Z,1026.85
2019-05-12T09:29:38.485Z,1026.85
2019-05-12T09:30:40.080Z,1026.86
2019-05-12T09:31:38.476Z,1026.83
2019-05-12T09:32:39.133Z,1026.75
2019-05-12T09:33:38.437Z,1026.75
2019-05-12T09:34:38.428Z,1026.74
2019-05-12T09:35:39.406Z,1026.65
2019-05-12T09:36:38.407Z,1026.59
2019-05-12T09:37:40.299Z,1026.56
2019-05-12T09:38:40.924Z,1026.55
2019-05-12T09:39:42.788Z,1026.54
2019-05-12T09:40:38.376Z,1026.27
2019-05-12T09:41:42.351Z,1026.26
2019-05-12T09:42:38.352Z,1026.31
2019-05-12T09:43:40.193Z,1026.30
2019-05-12T09:44:41.245Z,1026.34
2019-05-12T09:45:40.097Z,1026.28
2019-05-12T09:46:38.324Z,1026.59
2019-05-12T09:47:38.303Z,1026.45
2019-05-12T09:48:39.170Z,1026.30
2019-05-12T09:49:39.510Z,1026.32
2019-05-12T09:50:38.262Z,1026.54
2019-05-12T09:51:43.715Z,1026.46
2019-05-12T09:52:38.242Z,1026.36
2019-05-12T09:53:42.810Z,1026.32
2019-05-12T09:54:40.809Z,1026.27
2019-05-12T09:55:38.206Z,1026.32
2019-05-12T09:56:41.103Z,1026.38
2019-05-12T09:57:40.654Z,1026.52
2019-05-12T09:58:38.180Z,1026.33
2019-05-12T09:59:38.162Z,1026.43
2019-05-12T10:00:38.149Z,1026.56
2019-05-12T10:01:39.593Z,1026.56
2019-05-12T10:02:38.124Z,1026.58
2019-05-12T10:03:39.987Z,1026.54
2019-05-12T10:04:38.123Z,1026.58
2019-05-12T10:05:41.194Z,1026.56
2019-05-12T10:06:38.078Z,1026.56
2019-05-12T10:07:38.076Z,1026.57
2019-05-12T10:08:38.063Z,1026.56
2019-05-12T10:09:38.043Z,1026.59
2019-05-12T10:10:40.205Z,1026.57
2019-05-12T10:11:38.038Z,1026.60
2019-05-12T10:12:45.056Z,1026.58
2019-05-12T10:13:38.001Z,1026.55
2019-05-12T10:14:40.769Z,1026.56
2019-05-12T10:15:37.975Z,1026.53
2019-05-12T10:16:39.422Z,1026.54
2019-05-12T10:17:37.966Z,1026.47
2019-05-12T10:18:42.992Z,1026.47
2019-05-12T10:19:37.943Z,1026.48
2019-05-12T10:20:39.844Z,1026.50
2019-05-12T10:21:37.912Z,1026.44
2019-05-12T10:22:40.215Z,1026.38
2019-05-12T10:23:37.889Z,1026.41
2019-05-12T10:24:41.496Z,1026.31
2019-05-12T10:25:37.876Z,1026.40
2019-05-12T10:26:41.224Z,1026.35
2019-05-12T10:27:37.841Z,1026.38
2019-05-12T10:28:37.825Z,1026.41
2019-05-12T10:29:37.826Z,1026.45
2019-05-12T10:30:37.804Z,1026.45
2019-05-12T10:31:39.410Z,1026.47
2019-05-12T10:32:37.780Z,1026.50
2019-05-12T10:33:37.774Z,1026.48
2019-05-12T10:34:40.284Z,1026.65
2019-05-12T10:35:37.748Z,1026.52
2019-05-12T10:36:39.198Z,1026.69
2019-05-12T10:37:37.720Z,1026.59
2019-05-12T10:38:37.702Z,1026.69
2019-05-12T10:39:37.695Z,1026.71
2019-05-12T10:40:37.690Z,1026.66
2019-05-12T10:41:37.665Z,1026.62
2019-05-12T10:42:39.738Z,1026.61
2019-05-12T10:43:37.639Z,1026.59
2019-05-12T10:44:40.825Z,1026.64
2019-05-12T10:45:37.618Z,1026.66
2019-05-12T10:46:37.601Z,1026.63
2019-05-12T10:47:37.597Z,1026.67
2019-05-12T10:48:37.578Z,1026.62
2019-05-12T10:49:37.571Z,1026.60
2019-05-12T10:50:37.562Z,1026.54
2019-05-12T10:51:37.557Z,1026.55
2019-05-12T10:52:39.087Z,1026.51
2019-05-12T10:53:37.518Z,1026.53
2019-05-12T10:54:37.506Z,1026.57
2019-05-12T10:55:37.497Z,1026.57
2019-05-12T10:56:37.483Z,1026.65
2019-05-12T10:57:37.474Z,1026.70
2019-05-12T10:58:37.470Z,1026.69
2019-05-12T10:59:38.725Z,1026.73
2019-05-12T11:00:37.436Z,1026.69
2019-05-12T11:01:38.587Z,1026.59
2019-05-12T11:02:37.411Z,1026.53
2019-05-12T11:03:43.032Z,1026.52
2019-05-12T11:04:41.149Z,1026.68
2019-05-12T11:05:37.379Z,1026.65
2019-05-12T11:06:39.626Z,1026.60
2019-05-12T11:07:37.352Z,1026.54
2019-05-12T11:08:41.413Z,1026.58
2019-05-12T11:09:37.329Z,1026.44
2019-05-12T11:10:37.329Z,1026.57
2019-05-12T11:11:42.486Z,1026.51
2019-05-12T11:12:37.295Z,1026.60
2019-05-12T11:13:40.221Z,1026.61
2019-05-12T11:14:37.273Z,1026.58
2019-05-12T11:15:39.493Z,1026.62
2019-05-12T11:16:37.272Z,1026.62
2019-05-12T11:17:40.263Z,1026.53
2019-05-12T11:18:37.232Z,1026.61
2019-05-12T11:19:40.732Z,1026.64
2019-05-12T11:20:37.200Z,1026.67
2019-05-12T11:21:37.189Z,1026.68
2019-05-12T11:22:37.182Z,1026.66
2019-05-12T11:23:37.175Z,1026.65
2019-05-12T11:24:37.153Z,1026.63
2019-05-12T11:25:37.144Z,1026.66
2019-05-12T11:26:37.133Z,1026.70
2019-05-12T11:27:37.116Z,1026.66
2019-05-12T11:28:37.103Z,1026.67
2019-05-12T11:29:45.956Z,1026.61
2019-05-12T11:30:37.079Z,1026.59
2019-05-12T11:31:37.071Z,1026.52
2019-05-12T11:32:38.012Z,1026.56
2019-05-12T11:33:37.046Z,1026.41
2019-05-12T11:34:37.050Z,1026.42
2019-05-12T11:35:37.019Z,1026.56
2019-05-12T11:36:37.015Z,1026.59
2019-05-12T11:37:37.005Z,1026.62
2019-05-12T11:38:36.990Z,1026.65
2019-05-12T11:39:44.294Z,1026.62
2019-05-12T11:40:36.978Z,1026.63
2019-05-12T11:41:36.954Z,1026.52
2019-05-12T11:42:36.939Z,1026.63
2019-05-12T11:43:36.927Z,1026.68
2019-05-12T11:44:36.915Z,1026.65
2019-05-12T11:45:36.909Z,1026.64
2019-05-12T11:46:36.892Z,1026.64
2019-05-12T11:47:37.365Z,1026.61
2019-05-12T11:48:40.397Z,1026.61
2019-05-12T11:49:36.869Z,1026.56
2019-05-12T11:50:40.522Z,1026.56
2019-05-12T11:51:36.838Z,1026.53
2019-05-12T11:52:36.833Z,1026.61
2019-05-12T11:53:36.819Z,1026.65
2019-05-12T11:54:41.254Z,1026.69
2019-05-12T11:55:36.806Z,1026.72
2019-05-12T11:56:40.399Z,1026.61
2019-05-12T11:57:36.769Z,1026.61
2019-05-12T11:58:41.350Z,1026.58
2019-05-12T11:59:36.745Z,1026.61
2019-05-12T12:00:36.737Z,1026.58
2019-05-12T12:01:39.613Z,1026.58
2019-05-12T12:02:36.710Z,1026.64
2019-05-12T12:03:36.701Z,1026.63
2019-05-12T12:04:36.693Z,1026.59
2019-05-12T12:05:38.399Z,1026.63
2019-05-12T12:06:36.674Z,1026.58